Terminal Aerodrome Forecast
Issued by NWS Sterling, VA

Current Version | Previous Version | Text Only | Print | Product List | Glossary Off
Versions: 1 2 3 4 5 6 7 8 9 10 11 12 13 14 15 16 17 18 19 20 21

909
FTUS41 KLWX 160534
TAFIAD
TAF
KIAD 160534Z 1606/1712 32010G17KT P6SM BKN019 OVC050
     FM160700 32012G20KT P6SM -SHRA BKN019 OVC040
     FM160900 32011KT P6SM OVC050
     FM161500 33014G24KT P6SM SCT040
     FM162200 33011KT P6SM SCT050
     FM170000 33009KT P6SM FEW250
     FM170600 VRB03KT P6SM SKC=

USA.gov is the U.S. government's official web portal to all federal, state and local government web resources and services.